sensor_id;sensor_type;location;lat;lon;timestamp;P1;durP1;ratioP1;P2;durP2;ratioP2
69392;SDS011;56582;44.624;20.378;2023-05-23T00:02:22;5.70;;;3.90;;
69392;SDS011;56582;44.624;20.378;2023-05-23T00:04:47;10.30;;;4.47;;
69392;SDS011;56582;44.624;20.378;2023-05-23T00:07:13;7.70;;;3.50;;
69392;SDS011;56582;44.624;20.378;2023-05-23T00:09:38;7.07;;;4.10;;
69392;SDS011;56582;44.624;20.378;2023-05-23T00:12:04;7.53;;;4.13;;
69392;SDS011;56582;44.624;20.378;2023-05-23T00:14:29;7.07;;;3.65;;
69392;SDS011;56582;44.624;20.378;2023-05-23T00:16:57;5.80;;;3.73;;
69392;SDS011;56582;44.624;20.378;2023-05-23T00:19:24;7.18;;;3.67;;
69392;SDS011;56582;44.624;20.378;2023-05-23T00:21:49;7.20;;;3.65;;
69392;SDS011;56582;44.624;20.378;2023-05-23T00:24:17;6.87;;;3.40;;
69392;SDS011;56582;44.624;20.378;2023-05-23T00:26:44;6.03;;;3.70;;
69392;SDS011;56582;44.624;20.378;2023-05-23T00:29:10;5.88;;;3.67;;
69392;SDS011;56582;44.624;20.378;2023-05-23T00:31:41;6.57;;;3.53;;
69392;SDS011;56582;44.624;20.378;2023-05-23T00:34:10;4.70;;;3.35;;
69392;SDS011;56582;44.624;20.378;2023-05-23T00:36:39;6.83;;;4.00;;
69392;SDS011;56582;44.624;20.378;2023-05-23T00:39:05;7.00;;;3.53;;
69392;SDS011;56582;44.624;20.378;2023-05-23T00:41:32;5.07;;;3.80;;
69392;SDS011;56582;44.624;20.378;2023-05-23T00:43:58;5.87;;;3.67;;
69392;SDS011;56582;44.624;20.378;2023-05-23T00:46:24;8.88;;;3.00;;
69392;SDS011;56582;44.624;20.378;2023-05-23T00:48:50;6.32;;;3.40;;
69392;SDS011;56582;44.624;20.378;2023-05-23T00:51:17;8.82;;;3.70;;
69392;SDS011;56582;44.624;20.378;2023-05-23T00:53:43;6.13;;;3.53;;
69392;SDS011;56582;44.624;20.378;2023-05-23T00:56:08;5.38;;;3.50;;
69392;SDS011;56582;44.624;20.378;2023-05-23T00:58:36;6.03;;;3.45;;
69392;SDS011;56582;44.624;20.378;2023-05-23T01:01:01;7.27;;;3.20;;
69392;SDS011;56582;44.624;20.378;2023-05-23T01:03:27;10.53;;;3.53;;
69392;SDS011;56582;44.624;20.378;2023-05-23T01:05:54;5.45;;;3.30;;
69392;SDS011;56582;44.624;20.378;2023-05-23T01:08:20;7.28;;;3.47;;
69392;SDS011;56582;44.624;20.378;2023-05-23T01:10:46;8.55;;;3.42;;
69392;SDS011;56582;44.624;20.378;2023-05-23T01:13:22;9.77;;;4.10;;
69392;SDS011;56582;44.624;20.378;2023-05-23T01:19:15;10.32;;;4.10;;
69392;SDS011;56582;44.624;20.378;2023-05-23T01:21:56;5.70;;;3.33;;
69392;SDS011;56582;44.624;20.378;2023-05-23T01:30:06;8.13;;;3.72;;
69392;SDS011;56582;44.624;20.378;2023-05-23T01:32:34;8.32;;;2.92;;
69392;SDS011;56582;44.624;20.378;2023-05-23T01:35:01;4.93;;;3.53;;
69392;SDS011;56582;44.624;20.378;2023-05-23T01:37:28;8.07;;;3.47;;
69392;SDS011;56582;44.624;20.378;2023-05-23T01:39:54;5.88;;;3.50;;
69392;SDS011;56582;44.624;20.378;2023-05-23T01:42:19;7.90;;;4.10;;
69392;SDS011;56582;44.624;20.378;2023-05-23T01:44:45;8.10;;;3.60;;
69392;SDS011;56582;44.624;20.378;2023-05-23T01:47:11;9.50;;;3.75;;
69392;SDS011;56582;44.624;20.378;2023-05-23T01:49:39;8.00;;;3.67;;
69392;SDS011;56582;44.624;20.378;2023-05-23T01:52:06;11.55;;;3.40;;
69392;SDS011;56582;44.624;20.378;2023-05-23T01:54:33;8.32;;;4.30;;
69392;SDS011;56582;44.624;20.378;2023-05-23T01:57:00;7.15;;;3.97;;
69392;SDS011;56582;44.624;20.378;2023-05-23T01:59:26;6.10;;;3.42;;
69392;SDS011;56582;44.624;20.378;2023-05-23T02:01:52;6.80;;;3.97;;
69392;SDS011;56582;44.624;20.378;2023-05-23T02:04:17;8.37;;;4.67;;
69392;SDS011;56582;44.624;20.378;2023-05-23T02:06:43;8.65;;;4.63;;
69392;SDS011;56582;44.624;20.378;2023-05-23T02:09:09;9.63;;;5.53;;
69392;SDS011;56582;44.624;20.378;2023-05-23T02:11:34;9.00;;;5.63;;
69392;SDS011;56582;44.624;20.378;2023-05-23T02:14:00;11.33;;;6.13;;
69392;SDS011;56582;44.624;20.378;2023-05-23T02:16:27;10.65;;;6.00;;
69392;SDS011;56582;44.624;20.378;2023-05-23T02:18:52;11.73;;;7.15;;
69392;SDS011;56582;44.624;20.378;2023-05-23T02:21:20;11.90;;;7.37;;
69392;SDS011;56582;44.624;20.378;2023-05-23T02:23:46;11.95;;;8.02;;
69392;SDS011;56582;44.624;20.378;2023-05-23T02:26:11;11.57;;;7.60;;
69392;SDS011;56582;44.624;20.378;2023-05-23T02:28:37;17.92;;;7.18;;
69392;SDS011;56582;44.624;20.378;2023-05-23T02:31:03;15.10;;;10.53;;
69392;SDS011;56582;44.624;20.378;2023-05-23T02:33:28;15.50;;;9.13;;
69392;SDS011;56582;44.624;20.378;2023-05-23T02:35:53;15.88;;;10.60;;
69392;SDS011;56582;44.624;20.378;2023-05-23T02:38:19;16.50;;;11.20;;
69392;SDS011;56582;44.624;20.378;2023-05-23T02:40:45;14.50;;;9.80;;
69392;SDS011;56582;44.624;20.378;2023-05-23T02:43:10;14.07;;;9.55;;
69392;SDS011;56582;44.624;20.378;2023-05-23T02:45:36;10.63;;;7.60;;
69392;SDS011;56582;44.624;20.378;2023-05-23T02:48:01;12.48;;;8.82;;
69392;SDS011;56582;44.624;20.378;2023-05-23T02:50:27;17.00;;;10.27;;
69392;SDS011;56582;44.624;20.378;2023-05-23T02:52:52;13.97;;;9.47;;
69392;SDS011;56582;44.624;20.378;2023-05-23T02:55:18;13.80;;;9.50;;
69392;SDS011;56582;44.624;20.378;2023-05-23T02:57:43;18.20;;;10.13;;
69392;SDS011;56582;44.624;20.378;2023-05-23T03:00:08;16.17;;;10.55;;
69392;SDS011;56582;44.624;20.378;2023-05-23T03:02:36;18.27;;;11.30;;
69392;SDS011;56582;44.624;20.378;2023-05-23T03:05:01;20.50;;;10.95;;
69392;SDS011;56582;44.624;20.378;2023-05-23T03:07:28;16.73;;;12.10;;
69392;SDS011;56582;44.624;20.378;2023-05-23T03:09:54;17.83;;;11.10;;
69392;SDS011;56582;44.624;20.378;2023-05-23T03:12:20;18.98;;;10.68;;
69392;SDS011;56582;44.624;20.378;2023-05-23T03:14:45;17.20;;;10.63;;
69392;SDS011;56582;44.624;20.378;2023-05-23T03:17:12;14.97;;;9.57;;
69392;SDS011;56582;44.624;20.378;2023-05-23T03:19:38;19.77;;;9.73;;
69392;SDS011;56582;44.624;20.378;2023-05-23T03:22:03;14.87;;;10.27;;
69392;SDS011;56582;44.624;20.378;2023-05-23T03:24:29;17.77;;;11.10;;
69392;SDS011;56582;44.624;20.378;2023-05-23T03:26:55;18.38;;;11.73;;
69392;SDS011;56582;44.624;20.378;2023-05-23T03:29:21;19.43;;;11.50;;
69392;SDS011;56582;44.624;20.378;2023-05-23T03:31:46;16.23;;;11.60;;
69392;SDS011;56582;44.624;20.378;2023-05-23T03:34:12;16.40;;;11.50;;
69392;SDS011;56582;44.624;20.378;2023-05-23T03:36:37;17.13;;;11.43;;
69392;SDS011;56582;44.624;20.378;2023-05-23T03:39:03;23.20;;;11.80;;
69392;SDS011;56582;44.624;20.378;2023-05-23T03:41:28;17.20;;;11.87;;
69392;SDS011;56582;44.624;20.378;2023-05-23T03:43:54;19.27;;;13.10;;
69392;SDS011;56582;44.624;20.378;2023-05-23T03:46:19;19.87;;;12.80;;
69392;SDS011;56582;44.624;20.378;2023-05-23T03:48:45;19.85;;;12.85;;
69392;SDS011;56582;44.624;20.378;2023-05-23T03:51:10;19.60;;;13.83;;
69392;SDS011;56582;44.624;20.378;2023-05-23T03:53:37;18.20;;;12.85;;
69392;SDS011;56582;44.624;20.378;2023-05-23T03:56:03;19.37;;;12.77;;
69392;SDS011;56582;44.624;20.378;2023-05-23T03:58:28;19.25;;;12.93;;
69392;SDS011;56582;44.624;20.378;2023-05-23T04:00:54;16.53;;;11.53;;
69392;SDS011;56582;44.624;20.378;2023-05-23T04:03:19;18.90;;;12.80;;
69392;SDS011;56582;44.624;20.378;2023-05-23T04:05:45;18.90;;;13.10;;
69392;SDS011;56582;44.624;20.378;2023-05-23T04:08:10;21.45;;;13.45;;
69392;SDS011;56582;44.624;20.378;2023-05-23T04:10:37;22.40;;;13.88;;
69392;SDS011;56582;44.624;20.378;2023-05-23T04:13:02;20.87;;;13.43;;
69392;SDS011;56582;44.624;20.378;2023-05-23T04:15:28;19.35;;;13.50;;
69392;SDS011;56582;44.624;20.378;2023-05-23T04:17:54;20.80;;;13.00;;
69392;SDS011;56582;44.624;20.378;2023-05-23T04:20:20;19.00;;;13.10;;
69392;SDS011;56582;44.624;20.378;2023-05-23T04:22:46;20.23;;;12.25;;
69392;SDS011;56582;44.624;20.378;2023-05-23T04:25:11;21.83;;;13.37;;
69392;SDS011;56582;44.624;20.378;2023-05-23T04:27:37;17.63;;;12.32;;
69392;SDS011;56582;44.624;20.378;2023-05-23T04:30:06;18.02;;;12.05;;
69392;SDS011;56582;44.624;20.378;2023-05-23T04:32:34;17.40;;;12.02;;
69392;SDS011;56582;44.624;20.378;2023-05-23T04:35:00;18.30;;;12.10;;
69392;SDS011;56582;44.624;20.378;2023-05-23T04:37:28;17.00;;;11.23;;
69392;SDS011;56582;44.624;20.378;2023-05-23T04:39:56;17.98;;;12.40;;
69392;SDS011;56582;44.624;20.378;2023-05-23T04:42:23;18.15;;;12.13;;
69392;SDS011;56582;44.624;20.378;2023-05-23T04:44:50;15.25;;;11.15;;
69392;SDS011;56582;44.624;20.378;2023-05-23T04:47:16;16.40;;;11.30;;
69392;SDS011;56582;44.624;20.378;2023-05-23T04:49:43;17.17;;;10.75;;
69392;SDS011;56582;44.624;20.378;2023-05-23T04:52:09;16.33;;;10.77;;
69392;SDS011;56582;44.624;20.378;2023-05-23T04:54:34;14.80;;;11.20;;
69392;SDS011;56582;44.624;20.378;2023-05-23T04:57:01;15.48;;;10.43;;
69392;SDS011;56582;44.624;20.378;2023-05-23T04:59:27;14.35;;;10.38;;
69392;SDS011;56582;44.624;20.378;2023-05-23T05:01:52;14.27;;;9.00;;
69392;SDS011;56582;44.624;20.378;2023-05-23T05:04:18;13.43;;;8.73;;
69392;SDS011;56582;44.624;20.378;2023-05-23T05:06:43;13.32;;;8.80;;
69392;SDS011;56582;44.624;20.378;2023-05-23T05:09:09;12.77;;;9.60;;
69392;SDS011;56582;44.624;20.378;2023-05-23T05:11:35;12.88;;;9.50;;
69392;SDS011;56582;44.624;20.378;2023-05-23T05:14:00;13.47;;;9.37;;
69392;SDS011;56582;44.624;20.378;2023-05-23T05:16:25;13.27;;;9.97;;
69392;SDS011;56582;44.624;20.378;2023-05-23T05:18:51;16.67;;;9.10;;
69392;SDS011;56582;44.624;20.378;2023-05-23T05:21:16;13.63;;;9.85;;
69392;SDS011;56582;44.624;20.378;2023-05-23T05:23:42;15.63;;;10.10;;
69392;SDS011;56582;44.624;20.378;2023-05-23T05:26:07;14.50;;;9.77;;
69392;SDS011;56582;44.624;20.378;2023-05-23T05:28:33;16.45;;;10.18;;
69392;SDS011;56582;44.624;20.378;2023-05-23T05:31:00;13.80;;;9.60;;
69392;SDS011;56582;44.624;20.378;2023-05-23T05:33:29;12.87;;;9.70;;
69392;SDS011;56582;44.624;20.378;2023-05-23T05:35:59;16.35;;;12.00;;
69392;SDS011;56582;44.624;20.378;2023-05-23T05:38:26;15.95;;;10.75;;
69392;SDS011;56582;44.624;20.378;2023-05-23T05:40:51;16.23;;;10.97;;
69392;SDS011;56582;44.624;20.378;2023-05-23T05:43:17;15.73;;;10.73;;
69392;SDS011;56582;44.624;20.378;2023-05-23T05:45:42;15.35;;;11.18;;
69392;SDS011;56582;44.624;20.378;2023-05-23T05:48:07;17.97;;;10.80;;
69392;SDS011;56582;44.624;20.378;2023-05-23T05:50:33;13.23;;;10.33;;
69392;SDS011;56582;44.624;20.378;2023-05-23T05:52:58;16.53;;;10.77;;
69392;SDS011;56582;44.624;20.378;2023-05-23T05:55:24;15.07;;;10.07;;
69392;SDS011;56582;44.624;20.378;2023-05-23T05:57:49;13.88;;;9.68;;
69392;SDS011;56582;44.624;20.378;2023-05-23T06:00:15;12.27;;;9.83;;
69392;SDS011;56582;44.624;20.378;2023-05-23T06:02:42;15.75;;;10.75;;
69392;SDS011;56582;44.624;20.378;2023-05-23T06:05:09;12.80;;;9.73;;
69392;SDS011;56582;44.624;20.378;2023-05-23T06:07:39;13.10;;;9.47;;
69392;SDS011;56582;44.624;20.378;2023-05-23T06:10:05;14.30;;;9.68;;
69392;SDS011;56582;44.624;20.378;2023-05-23T06:12:31;12.60;;;9.35;;
69392;SDS011;56582;44.624;20.378;2023-05-23T06:14:57;12.65;;;9.52;;
69392;SDS011;56582;44.624;20.378;2023-05-23T06:17:22;14.53;;;9.83;;
69392;SDS011;56582;44.624;20.378;2023-05-23T06:19:48;13.53;;;9.53;;
69392;SDS011;56582;44.624;20.378;2023-05-23T06:22:13;14.73;;;10.33;;
69392;SDS011;56582;44.624;20.378;2023-05-23T06:24:39;12.27;;;9.57;;
69392;SDS011;56582;44.624;20.378;2023-05-23T06:27:04;14.60;;;9.73;;
69392;SDS011;56582;44.624;20.378;2023-05-23T06:29:30;13.10;;;8.60;;
69392;SDS011;56582;44.624;20.378;2023-05-23T06:31:55;16.38;;;9.30;;
69392;SDS011;56582;44.624;20.378;2023-05-23T06:34:21;12.60;;;8.63;;
69392;SDS011;56582;44.624;20.378;2023-05-23T06:36:47;12.60;;;9.30;;
69392;SDS011;56582;44.624;20.378;2023-05-23T06:39:12;11.70;;;8.50;;
69392;SDS011;56582;44.624;20.378;2023-05-23T06:41:38;11.73;;;8.75;;
69392;SDS011;56582;44.624;20.378;2023-05-23T06:44:04;13.23;;;8.83;;
69392;SDS011;56582;44.624;20.378;2023-05-23T06:46:30;12.65;;;9.25;;
69392;SDS011;56582;44.624;20.378;2023-05-23T06:48:55;14.07;;;10.38;;
69392;SDS011;56582;44.624;20.378;2023-05-23T06:51:22;12.03;;;9.03;;
69392;SDS011;56582;44.624;20.378;2023-05-23T06:53:48;12.73;;;9.30;;
69392;SDS011;56582;44.624;20.378;2023-05-23T06:56:13;15.47;;;9.57;;
69392;SDS011;56582;44.624;20.378;2023-05-23T06:58:39;14.70;;;9.53;;
69392;SDS011;56582;44.624;20.378;2023-05-23T07:01:05;12.80;;;9.30;;
69392;SDS011;56582;44.624;20.378;2023-05-23T07:03:30;10.52;;;8.35;;
69392;SDS011;56582;44.624;20.378;2023-05-23T07:05:56;13.83;;;9.50;;
69392;SDS011;56582;44.624;20.378;2023-05-23T07:08:22;12.33;;;8.97;;
69392;SDS011;56582;44.624;20.378;2023-05-23T07:10:47;11.23;;;9.60;;
69392;SDS011;56582;44.624;20.378;2023-05-23T07:13:13;14.13;;;9.00;;
69392;SDS011;56582;44.624;20.378;2023-05-23T07:15:38;13.90;;;9.15;;
69392;SDS011;56582;44.624;20.378;2023-05-23T07:18:03;12.87;;;7.47;;
69392;SDS011;56582;44.624;20.378;2023-05-23T07:20:29;10.40;;;8.10;;
69392;SDS011;56582;44.624;20.378;2023-05-23T07:22:57;11.38;;;8.05;;
69392;SDS011;56582;44.624;20.378;2023-05-23T07:25:22;9.50;;;7.77;;
69392;SDS011;56582;44.624;20.378;2023-05-23T07:27:48;9.27;;;7.03;;
69392;SDS011;56582;44.624;20.378;2023-05-23T07:30:13;10.17;;;8.07;;
69392;SDS011;56582;44.624;20.378;2023-05-23T07:32:40;10.07;;;7.50;;
69392;SDS011;56582;44.624;20.378;2023-05-23T07:35:05;10.63;;;6.03;;
69392;SDS011;56582;44.624;20.378;2023-05-23T07:37:31;9.65;;;7.38;;
69392;SDS011;56582;44.624;20.378;2023-05-23T07:39:57;12.63;;;8.10;;
69392;SDS011;56582;44.624;20.378;2023-05-23T07:42:22;10.80;;;6.67;;
69392;SDS011;56582;44.624;20.378;2023-05-23T07:44:47;10.20;;;8.17;;
69392;SDS011;56582;44.624;20.378;2023-05-23T07:47:13;11.40;;;6.45;;
69392;SDS011;56582;44.624;20.378;2023-05-23T07:49:39;8.43;;;6.17;;
69392;SDS011;56582;44.624;20.378;2023-05-23T07:52:04;10.63;;;7.07;;
69392;SDS011;56582;44.624;20.378;2023-05-23T07:54:30;9.80;;;6.50;;
69392;SDS011;56582;44.624;20.378;2023-05-23T07:56:56;10.55;;;6.90;;
69392;SDS011;56582;44.624;20.378;2023-05-23T07:59:22;11.70;;;7.40;;
69392;SDS011;56582;44.624;20.378;2023-05-23T08:01:47;11.10;;;7.73;;
69392;SDS011;56582;44.624;20.378;2023-05-23T08:04:15;13.02;;;8.35;;
69392;SDS011;56582;44.624;20.378;2023-05-23T08:06:41;8.80;;;6.30;;
69392;SDS011;56582;44.624;20.378;2023-05-23T08:09:07;11.90;;;8.17;;
69392;SDS011;56582;44.624;20.378;2023-05-23T08:11:33;10.05;;;7.40;;
69392;SDS011;56582;44.624;20.378;2023-05-23T08:13:59;12.67;;;7.80;;
69392;SDS011;56582;44.624;20.378;2023-05-23T08:16:26;12.23;;;8.07;;
69392;SDS011;56582;44.624;20.378;2023-05-23T08:18:52;12.57;;;7.85;;
69392;SDS011;56582;44.624;20.378;2023-05-23T08:21:17;14.40;;;8.73;;
69392;SDS011;56582;44.624;20.378;2023-05-23T08:23:42;11.80;;;8.00;;
69392;SDS011;56582;44.624;20.378;2023-05-23T08:26:08;12.18;;;7.43;;
69392;SDS011;56582;44.624;20.378;2023-05-23T08:28:33;13.27;;;8.33;;
69392;SDS011;56582;44.624;20.378;2023-05-23T08:30:59;10.43;;;8.37;;
69392;SDS011;56582;44.624;20.378;2023-05-23T08:33:25;9.82;;;7.72;;
69392;SDS011;56582;44.624;20.378;2023-05-23T08:35:50;11.50;;;8.20;;
69392;SDS011;56582;44.624;20.378;2023-05-23T08:38:16;13.45;;;8.18;;
69392;SDS011;56582;44.624;20.378;2023-05-23T08:40:42;13.50;;;8.50;;
69392;SDS011;56582;44.624;20.378;2023-05-23T08:43:13;12.32;;;7.72;;
69392;SDS011;56582;44.624;20.378;2023-05-23T08:45:39;12.73;;;8.52;;
69392;SDS011;56582;44.624;20.378;2023-05-23T08:48:07;10.97;;;7.70;;
69392;SDS011;56582;44.624;20.378;2023-05-23T08:50:34;13.15;;;8.50;;
69392;SDS011;56582;44.624;20.378;2023-05-23T08:53:05;15.02;;;9.93;;
69392;SDS011;56582;44.624;20.378;2023-05-23T08:55:34;14.05;;;8.95;;
69392;SDS011;56582;44.624;20.378;2023-05-23T08:58:01;15.07;;;9.13;;
69392;SDS011;56582;44.624;20.378;2023-05-23T09:00:27;16.53;;;8.47;;
69392;SDS011;56582;44.624;20.378;2023-05-23T09:02:53;11.88;;;7.80;;
69392;SDS011;56582;44.624;20.378;2023-05-23T09:05:20;11.60;;;8.27;;
69392;SDS011;56582;44.624;20.378;2023-05-23T09:07:46;9.75;;;7.15;;
69392;SDS011;56582;44.624;20.378;2023-05-23T09:10:13;11.07;;;7.00;;
69392;SDS011;56582;44.624;20.378;2023-05-23T09:12:44;11.50;;;7.97;;
69392;SDS011;56582;44.624;20.378;2023-05-23T09:15:10;10.18;;;7.10;;
69392;SDS011;56582;44.624;20.378;2023-05-23T09:17:36;11.88;;;7.28;;
69392;SDS011;56582;44.624;20.378;2023-05-23T09:20:02;9.63;;;6.57;;
69392;SDS011;56582;44.624;20.378;2023-05-23T09:22:29;8.68;;;6.43;;
69392;SDS011;56582;44.624;20.378;2023-05-23T09:24:55;9.13;;;6.10;;
69392;SDS011;56582;44.624;20.378;2023-05-23T09:27:21;8.45;;;5.32;;
69392;SDS011;56582;44.624;20.378;2023-05-23T09:29:48;9.50;;;5.90;;
69392;SDS011;56582;44.624;20.378;2023-05-23T09:32:17;8.25;;;5.50;;
69392;SDS011;56582;44.624;20.378;2023-05-23T09:34:59;11.52;;;5.60;;
69392;SDS011;56582;44.624;20.378;2023-05-23T09:37:29;7.13;;;5.80;;
69392;SDS011;56582;44.624;20.378;2023-05-23T09:40:00;8.43;;;5.75;;
69392;SDS011;56582;44.624;20.378;2023-05-23T09:42:33;8.80;;;6.40;;
69392;SDS011;56582;44.624;20.378;2023-05-23T09:44:59;9.88;;;6.05;;
69392;SDS011;56582;44.624;20.378;2023-05-23T09:47:24;10.23;;;6.63;;
69392;SDS011;56582;44.624;20.378;2023-05-23T09:49:51;9.63;;;5.63;;
69392;SDS011;56582;44.624;20.378;2023-05-23T09:52:16;6.83;;;5.67;;
69392;SDS011;56582;44.624;20.378;2023-05-23T09:54:44;9.43;;;5.30;;
69392;SDS011;56582;44.624;20.378;2023-05-23T09:57:10;8.55;;;6.03;;
69392;SDS011;56582;44.624;20.378;2023-05-23T09:59:38;7.75;;;5.72;;
69392;SDS011;56582;44.624;20.378;2023-05-23T10:02:12;7.38;;;5.20;;
69392;SDS011;56582;44.624;20.378;2023-05-23T10:04:40;10.20;;;5.37;;
69392;SDS011;56582;44.624;20.378;2023-05-23T10:07:13;7.43;;;5.15;;
69392;SDS011;56582;44.624;20.378;2023-05-23T10:09:43;8.68;;;5.22;;
69392;SDS011;56582;44.624;20.378;2023-05-23T10:14:56;6.75;;;5.28;;
69392;SDS011;56582;44.624;20.378;2023-05-23T10:20:02;6.53;;;4.90;;
69392;SDS011;56582;44.624;20.378;2023-05-23T10:22:32;6.97;;;5.60;;
69392;SDS011;56582;44.624;20.378;2023-05-23T10:25:02;7.30;;;4.63;;
69392;SDS011;56582;44.624;20.378;2023-05-23T10:27:29;8.02;;;4.32;;
69392;SDS011;56582;44.624;20.378;2023-05-23T10:29:55;8.17;;;5.30;;
69392;SDS011;56582;44.624;20.378;2023-05-23T10:32:22;9.27;;;5.80;;
69392;SDS011;56582;44.624;20.378;2023-05-23T10:35:36;7.35;;;5.65;;
69392;SDS011;56582;44.624;20.378;2023-05-23T10:38:08;7.05;;;5.35;;
69392;SDS011;56582;44.624;20.378;2023-05-23T10:40:57;9.18;;;5.72;;
69392;SDS011;56582;44.624;20.378;2023-05-23T10:45:56;7.10;;;5.00;;
69392;SDS011;56582;44.624;20.378;2023-05-23T10:48:32;10.63;;;5.17;;
69392;SDS011;56582;44.624;20.378;2023-05-23T10:51:07;7.60;;;5.63;;
69392;SDS011;56582;44.624;20.378;2023-05-23T10:53:39;7.17;;;5.40;;
69392;SDS011;56582;44.624;20.378;2023-05-23T10:56:06;8.05;;;5.15;;
69392;SDS011;56582;44.624;20.378;2023-05-23T10:58:33;7.03;;;5.65;;
69392;SDS011;56582;44.624;20.378;2023-05-23T11:01:12;7.45;;;4.93;;
69392;SDS011;56582;44.624;20.378;2023-05-23T11:09:00;8.30;;;5.53;;
69392;SDS011;56582;44.624;20.378;2023-05-23T11:14:32;7.45;;;4.00;;
69392;SDS011;56582;44.624;20.378;2023-05-23T11:17:22;6.88;;;4.32;;
69392;SDS011;56582;44.624;20.378;2023-05-23T11:19:55;7.50;;;3.97;;
69392;SDS011;56582;44.624;20.378;2023-05-23T11:22:27;8.27;;;4.07;;
69392;SDS011;56582;44.624;20.378;2023-05-23T11:24:56;6.70;;;4.13;;
69392;SDS011;56582;44.624;20.378;2023-05-23T11:32:40;5.53;;;3.73;;
69392;SDS011;56582;44.624;20.378;2023-05-23T11:35:08;6.05;;;4.07;;
69392;SDS011;56582;44.624;20.378;2023-05-23T11:37:34;7.65;;;3.90;;
69392;SDS011;56582;44.624;20.378;2023-05-23T11:43:05;6.00;;;3.28;;
69392;SDS011;56582;44.624;20.378;2023-05-23T11:45:32;5.40;;;3.63;;
69392;SDS011;56582;44.624;20.378;2023-05-23T11:48:06;6.22;;;3.80;;
69392;SDS011;56582;44.624;20.378;2023-05-23T11:50:49;7.20;;;3.75;;
69392;SDS011;56582;44.624;20.378;2023-05-23T11:53:16;5.35;;;3.80;;
69392;SDS011;56582;44.624;20.378;2023-05-23T11:55:48;7.07;;;3.75;;
69392;SDS011;56582;44.624;20.378;2023-05-23T11:58:32;7.10;;;3.13;;
69392;SDS011;56582;44.624;20.378;2023-05-23T12:03:28;7.05;;;4.00;;
69392;SDS011;56582;44.624;20.378;2023-05-23T12:05:55;7.80;;;3.58;;
69392;SDS011;56582;44.624;20.378;2023-05-23T12:08:21;5.50;;;3.70;;
69392;SDS011;56582;44.624;20.378;2023-05-23T12:10:51;5.40;;;3.60;;
69392;SDS011;56582;44.624;20.378;2023-05-23T12:13:18;5.22;;;3.30;;
69392;SDS011;56582;44.624;20.378;2023-05-23T12:15:44;5.57;;;3.35;;
69392;SDS011;56582;44.624;20.378;2023-05-23T12:18:11;5.10;;;3.33;;
69392;SDS011;56582;44.624;20.378;2023-05-23T12:20:37;9.48;;;3.75;;
69392;SDS011;56582;44.624;20.378;2023-05-23T12:23:05;5.67;;;3.17;;
69392;SDS011;56582;44.624;20.378;2023-05-23T12:25:39;5.70;;;3.78;;
69392;SDS011;56582;44.624;20.378;2023-05-23T12:28:06;5.97;;;3.73;;
69392;SDS011;56582;44.624;20.378;2023-05-23T12:30:39;7.32;;;4.10;;
69392;SDS011;56582;44.624;20.378;2023-05-23T12:33:09;6.45;;;3.80;;
69392;SDS011;56582;44.624;20.378;2023-05-23T12:35:35;6.40;;;3.70;;
69392;SDS011;56582;44.624;20.378;2023-05-23T12:38:04;6.07;;;4.07;;
69392;SDS011;56582;44.624;20.378;2023-05-23T12:40:31;4.75;;;3.30;;
69392;SDS011;56582;44.624;20.378;2023-05-23T12:42:56;5.93;;;4.10;;
69392;SDS011;56582;44.624;20.378;2023-05-23T12:45:22;8.55;;;4.03;;
69392;SDS011;56582;44.624;20.378;2023-05-23T12:47:58;7.13;;;3.93;;
69392;SDS011;56582;44.624;20.378;2023-05-23T12:50:24;5.53;;;4.10;;
69392;SDS011;56582;44.624;20.378;2023-05-23T12:52:50;6.30;;;3.97;;
69392;SDS011;56582;44.624;20.378;2023-05-23T12:55:16;9.27;;;4.23;;
69392;SDS011;56582;44.624;20.378;2023-05-23T12:57:42;6.47;;;4.13;;
69392;SDS011;56582;44.624;20.378;2023-05-23T13:00:08;6.45;;;4.00;;
69392;SDS011;56582;44.624;20.378;2023-05-23T13:02:34;7.72;;;4.47;;
69392;SDS011;56582;44.624;20.378;2023-05-23T13:05:00;6.30;;;4.10;;
69392;SDS011;56582;44.624;20.378;2023-05-23T13:07:25;7.10;;;4.30;;
69392;SDS011;56582;44.624;20.378;2023-05-23T13:09:50;5.53;;;4.00;;
69392;SDS011;56582;44.624;20.378;2023-05-23T13:12:16;7.50;;;3.65;;
69392;SDS011;56582;44.624;20.378;2023-05-23T13:14:42;7.23;;;4.40;;
69392;SDS011;56582;44.624;20.378;2023-05-23T13:17:07;6.93;;;4.22;;
69392;SDS011;56582;44.624;20.378;2023-05-23T13:19:33;6.00;;;3.87;;
69392;SDS011;56582;44.624;20.378;2023-05-23T13:21:58;5.80;;;4.17;;
69392;SDS011;56582;44.624;20.378;2023-05-23T13:24:24;6.22;;;3.78;;
69392;SDS011;56582;44.624;20.378;2023-05-23T13:26:50;6.32;;;3.95;;
69392;SDS011;56582;44.624;20.378;2023-05-23T13:29:16;7.43;;;4.20;;
69392;SDS011;56582;44.624;20.378;2023-05-23T13:31:41;6.43;;;4.77;;
69392;SDS011;56582;44.624;20.378;2023-05-23T13:34:07;7.15;;;4.15;;
69392;SDS011;56582;44.624;20.378;2023-05-23T13:36:32;7.47;;;4.60;;
69392;SDS011;56582;44.624;20.378;2023-05-23T13:38:59;5.50;;;3.95;;
69392;SDS011;56582;44.624;20.378;2023-05-23T13:41:25;9.25;;;4.70;;
69392;SDS011;56582;44.624;20.378;2023-05-23T13:43:51;7.17;;;4.70;;
69392;SDS011;56582;44.624;20.378;2023-05-23T13:46:17;7.00;;;4.90;;
69392;SDS011;56582;44.624;20.378;2023-05-23T13:48:42;6.47;;;4.70;;
69392;SDS011;56582;44.624;20.378;2023-05-23T13:51:07;7.50;;;4.80;;
69392;SDS011;56582;44.624;20.378;2023-05-23T13:53:33;7.33;;;4.90;;
69392;SDS011;56582;44.624;20.378;2023-05-23T13:55:58;7.05;;;4.40;;
69392;SDS011;56582;44.624;20.378;2023-05-23T13:58:24;6.37;;;4.40;;
69392;SDS011;56582;44.624;20.378;2023-05-23T14:00:49;7.13;;;5.20;;
69392;SDS011;56582;44.624;20.378;2023-05-23T14:03:15;9.07;;;4.53;;
69392;SDS011;56582;44.624;20.378;2023-05-23T14:05:40;7.80;;;4.73;;
69392;SDS011;56582;44.624;20.378;2023-05-23T14:08:06;7.07;;;5.10;;
69392;SDS011;56582;44.624;20.378;2023-05-23T14:10:31;7.70;;;4.90;;
69392;SDS011;56582;44.624;20.378;2023-05-23T14:12:57;8.10;;;5.20;;
69392;SDS011;56582;44.624;20.378;2023-05-23T14:15:23;7.30;;;4.97;;
69392;SDS011;56582;44.624;20.378;2023-05-23T14:17:48;13.40;;;5.10;;
69392;SDS011;56582;44.624;20.378;2023-05-23T14:20:19;8.65;;;5.07;;
69392;SDS011;56582;44.624;20.378;2023-05-23T14:22:45;8.55;;;5.30;;
69392;SDS011;56582;44.624;20.378;2023-05-23T14:25:11;10.90;;;4.90;;
69392;SDS011;56582;44.624;20.378;2023-05-23T14:27:37;7.82;;;5.07;;
69392;SDS011;56582;44.624;20.378;2023-05-23T14:30:04;8.00;;;5.47;;
69392;SDS011;56582;44.624;20.378;2023-05-23T14:32:30;8.07;;;4.90;;
69392;SDS011;56582;44.624;20.378;2023-05-23T14:34:59;6.28;;;4.72;;
69392;SDS011;56582;44.624;20.378;2023-05-23T14:37:24;8.20;;;5.20;;
69392;SDS011;56582;44.624;20.378;2023-05-23T14:39:50;8.82;;;4.82;;
69392;SDS011;56582;44.624;20.378;2023-05-23T14:42:15;7.43;;;4.53;;
69392;SDS011;56582;44.624;20.378;2023-05-23T14:44:41;7.27;;;4.70;;
69392;SDS011;56582;44.624;20.378;2023-05-23T14:47:06;7.03;;;4.40;;
69392;SDS011;56582;44.624;20.378;2023-05-23T14:49:31;8.10;;;4.83;;
69392;SDS011;56582;44.624;20.378;2023-05-23T14:51:57;8.55;;;4.30;;
69392;SDS011;56582;44.624;20.378;2023-05-23T14:54:23;5.83;;;3.73;;
69392;SDS011;56582;44.624;20.378;2023-05-23T14:56:48;6.28;;;3.95;;
69392;SDS011;56582;44.624;20.378;2023-05-23T14:59:15;9.55;;;4.60;;
69392;SDS011;56582;44.624;20.378;2023-05-23T15:01:41;8.73;;;4.30;;